< < Back
Terminal Aerodrome Forecast


Current Version              Previous Versions:   1  2  3  4  5  6  7  8  9  

Terminal Aerodrome Forecast

566
FTUS42 KILM 301754 CCC
TAFILM
TAF COR
KILM 301754Z 3018/3118 22011G16KT P6SM VCTS FEW030CB BKN050
      TEMPO 3019/3023 VRB20G35KT 3SM TSRA SCT012 BKN025CB OVC050
     FM310100 21007KT P6SM SCT250
     FM310800 22006KT P6SM SCT035 BKN250
     FM311400 23010KT P6SM VCTS FEW025CB BKN050=

Latest METAR

032
SAUS70 KWBC 310700 RRH
MTRILM
METAR KILM 310653Z AUTO 20010KT 10SM CLR 28/25 A2999 RMK AO2 LTG DSNT W
AND NW SLP157 T02780250 PWINO


USA.gov is the U.S. government's official web portal to all federal, state and local government web resources and services.